createdAt,value
2019-06-10T00:00:42.615Z,0.00
2019-06-10T00:01:42.641Z,0.00
2019-06-10T00:02:42.657Z,0.00
2019-06-10T00:03:42.686Z,0.00
2019-06-10T00:04:42.723Z,0.00
2019-06-10T00:05:42.822Z,0.00
2019-06-10T00:06:42.815Z,0.00
2019-06-10T00:07:42.891Z,0.00
2019-06-10T00:08:42.895Z,0.00
2019-06-10T00:09:42.973Z,0.00
2019-06-10T00:10:42.998Z,0.00
2019-06-10T00:11:43.035Z,0.00
2019-06-10T00:12:43.067Z,0.00
2019-06-10T00:13:43.103Z,0.00
2019-06-10T00:14:43.142Z,0.00
2019-06-10T00:15:43.196Z,0.00
2019-06-10T00:16:43.226Z,0.00
2019-06-10T00:17:55.076Z,0.00
2019-06-10T00:18:45.764Z,0.00
2019-06-10T00:19:43.357Z,0.00
2019-06-10T00:20:43.385Z,0.00
2019-06-10T00:21:43.446Z,0.00
2019-06-10T00:22:43.487Z,0.00
2019-06-10T00:23:43.512Z,0.00
2019-06-10T00:24:43.566Z,0.00
2019-06-10T00:25:43.611Z,0.00
2019-06-10T00:26:43.636Z,0.00
2019-06-10T00:27:43.683Z,0.00
2019-06-10T00:28:43.728Z,0.00
2019-06-10T00:29:43.756Z,0.00
2019-06-10T00:30:43.838Z,0.00
2019-06-10T00:31:43.854Z,0.00
2019-06-10T00:32:43.900Z,0.00
2019-06-10T00:33:43.933Z,0.00
2019-06-10T00:34:43.985Z,0.00
2019-06-10T00:35:44.005Z,0.00
2019-06-10T00:36:44.045Z,0.00
2019-06-10T00:37:44.084Z,0.00
2019-06-10T00:38:44.121Z,0.00
2019-06-10T00:39:44.182Z,0.00
2019-06-10T00:40:44.223Z,0.00
2019-06-10T00:41:44.295Z,0.00
2019-06-10T00:42:44.296Z,0.00
2019-06-10T00:43:44.372Z,0.00
2019-06-10T00:44:44.358Z,0.00
2019-06-10T00:45:44.451Z,0.00
2019-06-10T00:46:44.438Z,0.00
2019-06-10T00:47:44.497Z,0.00
2019-06-10T00:48:44.563Z,0.00
2019-06-10T00:49:44.570Z,0.00
2019-06-10T00:50:44.622Z,0.00
2019-06-10T00:51:44.692Z,0.00
2019-06-10T00:52:45.525Z,0.00
2019-06-10T00:53:44.749Z,0.00
2019-06-10T00:54:44.778Z,0.00
2019-06-10T00:55:44.826Z,0.00
2019-06-10T00:56:44.866Z,0.00
2019-06-10T00:57:44.918Z,0.00
2019-06-10T00:58:44.970Z,0.00
2019-06-10T00:59:44.999Z,0.00
2019-06-10T01:00:45.029Z,0.00
2019-06-10T01:01:45.084Z,0.00
2019-06-10T01:02:45.112Z,0.00
2019-06-10T01:03:45.171Z,0.00
2019-06-10T01:04:45.201Z,0.00
2019-06-10T01:05:45.227Z,0.00
2019-06-10T01:06:45.260Z,0.00
2019-06-10T01:07:45.464Z,0.00
2019-06-10T01:08:45.371Z,0.00
2019-06-10T01:09:45.457Z,0.00
2019-06-10T01:10:45.521Z,0.00
2019-06-10T01:11:45.559Z,0.00
2019-06-10T01:12:45.615Z,0.00
2019-06-10T01:13:45.623Z,0.00
2019-06-10T01:14:45.663Z,0.00
2019-06-10T01:15:45.639Z,0.00
2019-06-10T01:16:45.691Z,0.00
2019-06-10T01:17:45.769Z,0.00
2019-06-10T01:18:45.789Z,0.00
2019-06-10T01:19:45.911Z,0.00
2019-06-10T01:20:45.900Z,0.00
2019-06-10T01:21:45.939Z,0.00
2019-06-10T01:22:46.104Z,0.00
2019-06-10T01:23:46.146Z,0.00
2019-06-10T01:24:46.083Z,0.00
2019-06-10T01:25:46.103Z,0.00
2019-06-10T01:26:46.129Z,0.00
2019-06-10T01:27:46.128Z,0.00
2019-06-10T01:28:46.237Z,0.00
2019-06-10T01:29:46.297Z,0.00
2019-06-10T01:30:46.331Z,0.00
2019-06-10T01:31:46.396Z,0.00
2019-06-10T01:32:46.396Z,0.00
2019-06-10T01:33:46.397Z,0.00
2019-06-10T01:34:46.408Z,0.00
2019-06-10T01:35:46.513Z,0.00
2019-06-10T01:36:46.605Z,0.00
2019-06-10T01:37:46.633Z,0.00
2019-06-10T01:38:46.631Z,0.00
2019-06-10T01:39:46.698Z,0.00
2019-06-10T01:40:46.771Z,0.00
2019-06-10T01:41:46.772Z,0.00
2019-06-10T01:42:46.765Z,0.00
2019-06-10T01:43:46.805Z,0.00
2019-06-10T01:44:46.853Z,0.00
2019-06-10T01:45:46.913Z,0.00
2019-06-10T01:46:46.914Z,0.00
2019-06-10T01:47:46.991Z,0.00
2019-06-10T01:48:48.298Z,0.00
2019-06-10T01:49:47.026Z,0.00
2019-06-10T01:50:47.066Z,0.00
2019-06-10T01:51:47.100Z,0.00
2019-06-10T01:52:47.135Z,0.00
2019-06-10T01:53:47.184Z,0.00
2019-06-10T01:54:47.223Z,0.00
2019-06-10T01:55:47.252Z,0.00
2019-06-10T01:56:47.335Z,0.00
2019-06-10T01:57:47.342Z,0.00
2019-06-10T01:58:47.412Z,0.00
2019-06-10T01:59:47.455Z,0.00
2019-06-10T02:00:47.485Z,0.00
2019-06-10T02:01:47.523Z,0.00
2019-06-10T02:02:47.571Z,0.00
2019-06-10T02:03:47.573Z,0.00
2019-06-10T02:04:47.659Z,0.00
2019-06-10T02:05:47.656Z,0.00
2019-06-10T02:06:47.710Z,0.00
2019-06-10T02:07:47.752Z,0.00
2019-06-10T02:08:47.832Z,0.00
2019-06-10T02:09:47.833Z,0.00
2019-06-10T02:10:47.861Z,0.00
2019-06-10T02:11:47.905Z,0.00
2019-06-10T02:12:47.981Z,0.00
2019-06-10T02:13:48.005Z,0.00
2019-06-10T02:14:48.040Z,0.00
2019-06-10T02:15:48.104Z,0.00
2019-06-10T02:16:50.544Z,0.00
2019-06-10T02:17:48.205Z,0.00
2019-06-10T02:18:59.806Z,0.00
2019-06-10T02:19:48.235Z,0.00
2019-06-10T02:20:48.296Z,0.00
2019-06-10T02:21:48.317Z,0.00
2019-06-10T02:22:48.363Z,0.00
2019-06-10T02:23:48.407Z,0.00
2019-06-10T02:24:50.541Z,0.00
2019-06-10T02:25:48.520Z,0.00
2019-06-10T02:26:48.559Z,0.00
2019-06-10T02:27:50.640Z,0.00
2019-06-10T02:28:48.615Z,0.00
2019-06-10T02:29:50.586Z,0.00
2019-06-10T02:30:51.858Z,0.00
2019-06-10T02:31:51.874Z,0.00
2019-06-10T02:32:52.135Z,0.00
2019-06-10T02:33:52.039Z,0.00
2019-06-10T02:35:06.981Z,0.00
2019-06-10T02:35:49.367Z,0.00
2019-06-10T02:36:48.960Z,0.00
2019-06-10T02:37:48.984Z,0.00
2019-06-10T02:38:49.015Z,0.00
2019-06-10T02:39:49.031Z,0.00
2019-06-10T02:40:49.111Z,0.00
2019-06-10T02:41:49.137Z,0.00
2019-06-10T02:42:49.216Z,0.00
2019-06-10T02:43:49.225Z,0.00
2019-06-10T02:44:49.248Z,0.00
2019-06-10T02:45:49.273Z,0.00
2019-06-10T02:46:49.338Z,0.00
2019-06-10T02:47:49.383Z,0.00
2019-06-10T02:48:49.433Z,0.00
2019-06-10T02:49:58.983Z,0.00
2019-06-10T02:50:49.509Z,0.00
2019-06-10T02:51:49.529Z,0.00
2019-06-10T02:52:52.917Z,0.00
2019-06-10T02:53:49.632Z,0.00
2019-06-10T02:54:53.159Z,0.00
2019-06-10T02:55:49.686Z,0.00
2019-06-10T02:56:53.444Z,0.00
2019-06-10T02:57:49.774Z,0.00
2019-06-10T02:58:53.242Z,0.00
2019-06-10T02:59:49.873Z,0.00
2019-06-10T03:00:49.902Z,0.00
2019-06-10T03:01:49.956Z,0.00
2019-06-10T03:02:52.949Z,0.00
2019-06-10T03:03:53.891Z,0.00
2019-06-10T03:04:50.073Z,0.00
2019-06-10T03:05:53.421Z,0.00
2019-06-10T03:06:50.136Z,0.00
2019-06-10T03:07:53.097Z,0.00
2019-06-10T03:08:50.228Z,0.00
2019-06-10T03:09:53.443Z,0.00
2019-06-10T03:10:50.303Z,0.00
2019-06-10T03:11:53.340Z,0.00
2019-06-10T03:12:52.674Z,0.00
2019-06-10T03:13:50.445Z,0.00
2019-06-10T03:14:52.502Z,0.00
2019-06-10T03:15:52.184Z,0.00
2019-06-10T03:16:52.695Z,0.00
2019-06-10T03:17:52.192Z,0.00
2019-06-10T03:18:52.549Z,0.00
2019-06-10T03:19:53.533Z,0.00
2019-06-10T03:20:52.873Z,0.00
2019-06-10T03:21:52.182Z,0.00
2019-06-10T03:22:52.538Z,0.00
2019-06-10T03:23:52.992Z,0.00
2019-06-10T03:24:52.367Z,0.00
2019-06-10T03:25:52.729Z,0.00
2019-06-10T03:26:52.216Z,0.00
2019-06-10T03:27:52.484Z,0.00
2019-06-10T03:28:52.031Z,0.00
2019-06-10T03:29:52.662Z,0.00
2019-06-10T03:30:55.283Z,0.00
2019-06-10T03:31:55.055Z,0.00
2019-06-10T03:32:55.345Z,0.00
2019-06-10T03:33:54.305Z,0.00
2019-06-10T03:34:54.821Z,0.00
2019-06-10T03:35:52.666Z,0.00
2019-06-10T03:36:53.448Z,0.00
2019-06-10T03:37:52.813Z,0.00
2019-06-10T03:38:53.753Z,0.00
2019-06-10T03:39:53.098Z,0.00
2019-06-10T03:40:52.444Z,0.00
2019-06-10T03:41:52.765Z,0.00
2019-06-10T03:42:52.053Z,0.00
2019-06-10T03:43:53.104Z,0.00
2019-06-10T03:44:52.553Z,0.00
2019-06-10T03:45:53.143Z,0.00
2019-06-10T03:46:52.347Z,0.00
2019-06-10T03:47:52.713Z,0.00
2019-06-10T03:48:52.659Z,0.00
2019-06-10T03:49:55.961Z,0.00
2019-06-10T03:50:52.448Z,0.00
2019-06-10T03:51:52.977Z,0.00
2019-06-10T03:52:52.494Z,0.00
2019-06-10T03:53:53.038Z,0.00
2019-06-10T03:54:52.593Z,0.00
2019-06-10T03:55:52.634Z,0.00
2019-06-10T03:56:52.200Z,0.00
2019-06-10T03:57:52.681Z,0.00
2019-06-10T03:58:52.256Z,0.00
2019-06-10T03:59:52.783Z,0.00
2019-06-10T04:00:52.387Z,0.00
2019-06-10T04:01:52.910Z,0.00
2019-06-10T04:02:53.235Z,0.00
2019-06-10T04:03:53.070Z,0.00
2019-06-10T04:04:52.515Z,0.00
2019-06-10T04:05:52.749Z,0.00
2019-06-10T04:06:53.297Z,0.00
2019-06-10T04:07:52.745Z,0.00
2019-06-10T04:08:52.637Z,0.00
2019-06-10T04:09:52.713Z,0.00
2019-06-10T04:10:52.727Z,0.00
2019-06-10T04:11:53.326Z,0.00
2019-06-10T04:12:52.805Z,0.00
2019-06-10T04:13:53.519Z,0.00
2019-06-10T04:14:52.928Z,0.00
2019-06-10T04:15:53.457Z,0.00
2019-06-10T04:16:52.999Z,0.00
2019-06-10T04:17:53.157Z,0.00
2019-06-10T04:18:53.540Z,0.00
2019-06-10T04:20:07.834Z,0.00
2019-06-10T04:20:53.111Z,0.00
2019-06-10T04:21:53.326Z,0.00
2019-06-10T04:22:53.191Z,0.00
2019-06-10T04:23:53.239Z,0.00
2019-06-10T04:24:53.297Z,0.00
2019-06-10T04:25:53.375Z,0.00
2019-06-10T04:26:53.361Z,0.00
2019-06-10T04:27:53.440Z,0.00
2019-06-10T04:28:53.440Z,0.00
2019-06-10T04:29:53.479Z,0.00
2019-06-10T04:30:53.707Z,0.00
2019-06-10T04:31:53.561Z,0.00
2019-06-10T04:32:53.593Z,0.00
2019-06-10T04:33:53.639Z,0.00
2019-06-10T04:34:53.708Z,0.00
2019-06-10T04:35:53.781Z,0.00
2019-06-10T04:36:53.772Z,0.00
2019-06-10T04:37:53.817Z,0.00
2019-06-10T04:38:53.886Z,0.00
2019-06-10T04:39:53.888Z,0.00
2019-06-10T04:40:53.977Z,0.00
2019-06-10T04:41:53.960Z,0.00
2019-06-10T04:42:54.016Z,0.00
2019-06-10T04:43:54.044Z,0.00
2019-06-10T04:44:54.082Z,0.00
2019-06-10T04:45:54.128Z,0.00
2019-06-10T04:46:54.166Z,0.00
2019-06-10T04:47:54.195Z,0.00
2019-06-10T04:48:54.245Z,0.00
2019-06-10T04:49:54.330Z,0.00
2019-06-10T04:50:54.303Z,0.00
2019-06-10T04:51:54.371Z,0.00
2019-06-10T04:52:54.437Z,0.00
2019-06-10T04:53:54.439Z,0.00
2019-06-10T04:54:54.477Z,0.00
2019-06-10T04:55:54.529Z,0.00
2019-06-10T04:56:54.558Z,0.00
2019-06-10T04:57:54.608Z,0.00
2019-06-10T04:58:54.636Z,0.00
2019-06-10T04:59:54.674Z,0.00
2019-06-10T05:00:54.708Z,0.00
2019-06-10T05:01:54.761Z,0.00
2019-06-10T05:02:54.772Z,0.00
2019-06-10T05:03:54.864Z,0.00
2019-06-10T05:04:54.898Z,0.00
2019-06-10T05:05:54.905Z,0.00
2019-06-10T05:06:54.952Z,0.00
2019-06-10T05:07:54.986Z,0.00
2019-06-10T05:08:55.025Z,0.00
2019-06-10T05:09:55.089Z,0.00
2019-06-10T05:10:55.136Z,0.00
2019-06-10T05:11:55.167Z,0.00
2019-06-10T05:12:55.194Z,0.00
2019-06-10T05:13:55.238Z,0.00
2019-06-10T05:14:55.327Z,0.00
2019-06-10T05:15:55.323Z,0.00
2019-06-10T05:16:55.353Z,0.00
2019-06-10T05:17:55.387Z,0.00
2019-06-10T05:18:55.446Z,0.00
2019-06-10T05:19:55.498Z,0.00
2019-06-10T05:20:58.519Z,0.00
2019-06-10T05:21:55.542Z,0.00
2019-06-10T05:22:55.580Z,0.00
2019-06-10T05:23:55.623Z,0.00
2019-06-10T05:24:55.683Z,0.00
2019-06-10T05:25:56.339Z,0.00
2019-06-10T05:26:55.728Z,0.00
2019-06-10T05:27:55.794Z,0.00
2019-06-10T05:28:55.816Z,0.00
2019-06-10T05:29:55.873Z,0.00
2019-06-10T05:30:55.900Z,0.00
2019-06-10T05:31:55.955Z,0.00
2019-06-10T05:32:55.979Z,0.00
2019-06-10T05:33:56.022Z,0.00
2019-06-10T05:34:56.068Z,0.00
2019-06-10T05:35:56.090Z,0.00
2019-06-10T05:36:56.173Z,0.00
2019-06-10T05:37:56.176Z,0.00
2019-06-10T05:38:56.225Z,0.00
2019-06-10T05:39:56.254Z,0.00
2019-06-10T05:40:56.305Z,0.00
2019-06-10T05:41:56.351Z,0.00
2019-06-10T05:42:56.405Z,0.00
2019-06-10T05:43:56.435Z,0.00
2019-06-10T05:44:56.476Z,0.00
2019-06-10T05:45:56.538Z,0.00
2019-06-10T05:46:56.682Z,0.00
2019-06-10T05:47:56.565Z,0.00
2019-06-10T05:48:56.660Z,0.00
2019-06-10T05:49:56.654Z,0.00
2019-06-10T05:51:02.159Z,0.00
2019-06-10T05:51:56.749Z,0.00
2019-06-10T05:52:56.780Z,0.00
2019-06-10T05:53:56.795Z,0.00
2019-06-10T05:54:56.904Z,0.00
2019-06-10T05:55:56.878Z,0.00
2019-06-10T05:56:56.925Z,0.00
2019-06-10T05:57:56.962Z,0.00
2019-06-10T05:58:57.019Z,0.00
2019-06-10T05:59:57.059Z,0.00
2019-06-10T06:00:57.083Z,0.00
2019-06-10T06:01:57.183Z,0.00
2019-06-10T06:02:57.152Z,0.00
2019-06-10T06:03:57.202Z,0.00
2019-06-10T06:04:57.253Z,0.00
2019-06-10T06:05:57.298Z,0.00
2019-06-10T06:06:57.334Z,0.00
2019-06-10T06:08:04.362Z,0.00
2019-06-10T06:08:57.424Z,0.00
2019-06-10T06:09:57.443Z,0.00
2019-06-10T06:10:57.511Z,0.00
2019-06-10T06:11:57.536Z,0.00
2019-06-10T06:12:57.575Z,0.00
2019-06-10T06:13:57.598Z,0.00
2019-06-10T06:14:57.684Z,0.00
2019-06-10T06:15:57.679Z,0.00
2019-06-10T06:16:57.722Z,0.00
2019-06-10T06:18:09.173Z,0.00
2019-06-10T06:18:57.812Z,0.00
2019-06-10T06:19:57.878Z,0.00
2019-06-10T06:20:57.857Z,0.00
2019-06-10T06:21:57.923Z,0.00
2019-06-10T06:22:57.961Z,0.00
2019-06-10T06:23:58.029Z,0.00
2019-06-10T06:24:58.018Z,0.00
2019-06-10T06:25:58.062Z,0.00
2019-06-10T06:26:58.111Z,0.00
2019-06-10T06:27:58.147Z,0.00
2019-06-10T06:28:58.203Z,0.00
2019-06-10T06:29:58.239Z,0.00
2019-06-10T06:30:58.276Z,0.00
2019-06-10T06:31:58.291Z,0.00
2019-06-10T06:32:58.334Z,0.00
2019-06-10T06:33:58.398Z,0.00
2019-06-10T06:34:58.417Z,0.00
2019-06-10T06:35:58.462Z,0.00
2019-06-10T06:36:58.513Z,0.00
2019-06-10T06:37:58.580Z,0.00
2019-06-10T06:38:58.691Z,0.00
2019-06-10T06:39:58.612Z,0.00
2019-06-10T06:40:58.644Z,0.00
2019-06-10T06:41:58.694Z,0.00
2019-06-10T06:42:58.751Z,0.00
2019-06-10T06:43:58.777Z,0.00
2019-06-10T06:44:58.825Z,0.00
2019-06-10T06:45:58.856Z,0.00
2019-06-10T06:46:58.903Z,0.00
2019-06-10T06:47:58.913Z,0.00
2019-06-10T06:48:59.017Z,0.00
2019-06-10T06:49:59.054Z,0.00
2019-06-10T06:51:04.000Z,0.00
2019-06-10T06:51:59.521Z,0.00
2019-06-10T06:53:19.357Z,0.00
2019-06-10T06:53:59.234Z,0.00
2019-06-10T06:54:59.253Z,0.00
2019-06-10T06:55:59.246Z,0.00
2019-06-10T06:56:59.307Z,0.00
2019-06-10T06:57:59.327Z,0.00
2019-06-10T06:58:59.350Z,0.00
2019-06-10T06:59:59.394Z,0.00
2019-06-10T07:01:07.339Z,0.00
2019-06-10T07:01:59.481Z,0.00
2019-06-10T07:02:59.529Z,0.00
2019-06-10T07:03:59.558Z,0.00
2019-06-10T07:04:59.620Z,0.00
2019-06-10T07:06:02.451Z,0.00
2019-06-10T07:06:59.729Z,0.00
2019-06-10T07:08:01.806Z,0.00
2019-06-10T07:09:04.602Z,0.00
2019-06-10T07:09:59.851Z,0.00
2019-06-10T07:10:59.891Z,0.00
2019-06-10T07:12:02.377Z,0.00
2019-06-10T07:12:59.928Z,0.00
2019-06-10T07:14:00.126Z,0.00
2019-06-10T07:15:00.006Z,0.00
2019-06-10T07:16:02.739Z,0.00
2019-06-10T07:17:00.077Z,0.00
2019-06-10T07:18:02.333Z,0.00
2019-06-10T07:19:02.489Z,0.00
2019-06-10T07:20:00.198Z,0.00
2019-06-10T07:21:02.549Z,0.00
2019-06-10T07:22:09.428Z,0.00
2019-06-10T07:23:02.564Z,0.00
2019-06-10T07:24:00.354Z,0.00
2019-06-10T07:25:06.213Z,0.00
2019-06-10T07:26:02.357Z,0.00
2019-06-10T07:27:02.589Z,0.00
2019-06-10T07:28:02.040Z,0.00
2019-06-10T07:29:02.876Z,0.00
2019-06-10T07:30:04.669Z,0.00
2019-06-10T07:31:03.045Z,0.00
2019-06-10T07:32:03.212Z,0.00
2019-06-10T07:33:02.850Z,0.00
2019-06-10T07:34:02.603Z,0.00
2019-06-10T07:35:02.938Z,0.00
2019-06-10T07:36:03.174Z,0.00
2019-06-10T07:37:02.586Z,0.00
2019-06-10T07:38:03.067Z,0.00
2019-06-10T07:39:03.509Z,0.00
2019-06-10T07:40:03.021Z,0.00
2019-06-10T07:41:02.570Z,0.00
2019-06-10T07:42:03.146Z,0.00
2019-06-10T07:43:02.362Z,0.00
2019-06-10T07:44:03.058Z,0.00
2019-06-10T07:45:02.538Z,0.00
2019-06-10T07:46:03.408Z,0.00
2019-06-10T07:47:02.591Z,0.00
2019-06-10T07:48:02.811Z,0.00
2019-06-10T07:49:03.358Z,0.00
2019-06-10T07:50:03.006Z,0.00
2019-06-10T07:51:02.838Z,0.00
2019-06-10T07:52:13.002Z,0.00
2019-06-10T07:53:02.263Z,0.00
2019-06-10T07:54:03.201Z,0.00
2019-06-10T07:55:02.491Z,0.00
2019-06-10T07:56:03.194Z,0.00
2019-06-10T07:57:02.444Z,0.00
2019-06-10T07:58:02.539Z,0.00
2019-06-10T07:59:03.916Z,0.00
2019-06-10T08:00:03.186Z,0.00
2019-06-10T08:01:02.675Z,0.00
2019-06-10T08:02:03.034Z,0.00
2019-06-10T08:03:02.478Z,0.00
2019-06-10T08:04:03.068Z,0.00
2019-06-10T08:05:03.646Z,0.00
2019-06-10T08:06:03.351Z,0.00
2019-06-10T08:07:03.328Z,0.00
2019-06-10T08:08:02.818Z,0.00
2019-06-10T08:09:02.369Z,0.00
2019-06-10T08:10:02.899Z,0.00
2019-06-10T08:11:03.405Z,0.00
2019-06-10T08:12:05.821Z,0.00
2019-06-10T08:13:02.964Z,0.00
2019-06-10T08:14:04.641Z,0.00
2019-06-10T08:15:02.854Z,0.00
2019-06-10T08:16:02.970Z,0.00
2019-06-10T08:17:03.096Z,0.00
2019-06-10T08:18:04.285Z,0.00
2019-06-10T08:19:26.132Z,0.00
2019-06-10T08:20:02.711Z,0.00
2019-06-10T08:21:03.103Z,0.00
2019-06-10T08:22:03.064Z,0.00
2019-06-10T08:23:02.700Z,0.00
2019-06-10T08:24:03.483Z,0.00
2019-06-10T08:25:04.897Z,0.00
2019-06-10T08:26:03.598Z,0.00
2019-06-10T08:27:02.857Z,0.00
2019-06-10T08:28:03.154Z,0.00
2019-06-10T08:29:04.348Z,0.00
2019-06-10T08:30:17.616Z,0.00
2019-06-10T08:31:03.711Z,0.00
2019-06-10T08:32:03.451Z,0.00
2019-06-10T08:33:03.477Z,0.00
2019-06-10T08:34:03.273Z,0.00
2019-06-10T08:35:03.155Z,0.00
2019-06-10T08:36:03.924Z,0.00
2019-06-10T08:37:04.221Z,0.00
2019-06-10T08:38:03.275Z,0.00
2019-06-10T08:39:03.402Z,0.00
2019-06-10T08:40:03.776Z,0.00
2019-06-10T08:41:03.467Z,0.00
2019-06-10T08:42:03.448Z,0.00
2019-06-10T08:43:04.243Z,0.00
2019-06-10T08:44:03.492Z,0.00
2019-06-10T08:45:03.643Z,0.00
2019-06-10T08:46:03.596Z,0.00
2019-06-10T08:47:03.636Z,0.00
2019-06-10T08:48:03.713Z,0.00
2019-06-10T08:49:03.733Z,0.00
2019-06-10T08:50:03.743Z,0.00
2019-06-10T08:51:04.180Z,0.00
2019-06-10T08:52:03.908Z,0.00
2019-06-10T08:53:13.527Z,0.00
2019-06-10T08:54:03.909Z,0.00
2019-06-10T08:55:03.957Z,0.00
2019-06-10T08:56:03.994Z,0.00
2019-06-10T08:57:04.682Z,0.00
2019-06-10T08:58:04.550Z,0.00
2019-06-10T08:59:04.082Z,0.00
2019-06-10T09:00:11.640Z,0.00
2019-06-10T09:01:04.183Z,0.00
2019-06-10T09:02:04.234Z,0.00
2019-06-10T09:03:04.388Z,0.00
2019-06-10T09:04:04.320Z,0.00
2019-06-10T09:05:04.986Z,0.00
2019-06-10T09:06:04.383Z,0.00
2019-06-10T09:07:04.469Z,0.00
2019-06-10T09:08:04.465Z,0.00
2019-06-10T09:09:04.529Z,0.00
2019-06-10T09:10:04.554Z,0.00
2019-06-10T09:11:04.564Z,0.00
2019-06-10T09:12:04.741Z,0.00
2019-06-10T09:13:04.674Z,0.00
2019-06-10T09:14:04.689Z,0.00
2019-06-10T09:15:04.728Z,0.00
2019-06-10T09:16:12.765Z,0.00
2019-06-10T09:17:04.826Z,4.00
2019-06-10T09:18:04.857Z,0.00
2019-06-10T09:19:04.880Z,4.00
2019-06-10T09:20:04.954Z,0.00
2019-06-10T09:21:04.990Z,4.00
2019-06-10T09:22:05.008Z,4.00
2019-06-10T09:23:17.835Z,4.00
2019-06-10T09:24:05.111Z,8.00
2019-06-10T09:25:05.127Z,16.00
2019-06-10T09:26:05.170Z,16.00
2019-06-10T09:27:05.197Z,20.00
2019-06-10T09:28:05.273Z,28.00
2019-06-10T09:29:05.292Z,32.00
2019-06-10T09:30:05.326Z,44.00
2019-06-10T09:31:05.577Z,52.00
2019-06-10T09:32:05.650Z,68.00
2019-06-10T09:33:05.473Z,80.00
2019-06-10T09:34:05.472Z,96.00
2019-06-10T09:35:05.524Z,112.00
2019-06-10T09:36:05.562Z,136.00
2019-06-10T09:37:05.606Z,160.00
2019-06-10T09:38:05.681Z,188.00
2019-06-10T09:39:05.683Z,216.00
2019-06-10T09:40:05.724Z,252.00
2019-06-10T09:41:06.433Z,284.00
2019-06-10T09:42:06.739Z,328.00
2019-06-10T09:43:05.838Z,368.00
2019-06-10T09:44:05.912Z,412.00
2019-06-10T09:45:05.925Z,460.00
2019-06-10T09:46:05.974Z,512.00
2019-06-10T09:47:05.978Z,564.00
2019-06-10T09:48:06.029Z,624.00
2019-06-10T09:49:06.091Z,684.00
2019-06-10T09:50:06.111Z,748.00
2019-06-10T09:51:06.160Z,824.00
2019-06-10T09:52:06.187Z,896.00
2019-06-10T09:53:06.241Z,980.00
2019-06-10T09:54:06.970Z,1056.00
2019-06-10T09:55:06.317Z,1140.00
2019-06-10T09:56:06.340Z,1232.00
2019-06-10T09:57:06.371Z,1320.00
2019-06-10T09:58:06.435Z,1424.00
2019-06-10T09:59:06.505Z,1520.00
2019-06-10T10:00:06.542Z,1620.00
2019-06-10T10:01:06.538Z,1720.00
2019-06-10T10:02:07.423Z,1828.00
2019-06-10T10:03:06.629Z,1932.00
2019-06-10T10:04:06.669Z,2016.00
2019-06-10T10:05:06.708Z,2112.00
2019-06-10T10:06:14.602Z,2224.00
2019-06-10T10:07:06.784Z,2404.00
2019-06-10T10:08:06.836Z,2512.00
2019-06-10T10:09:06.876Z,2684.00
2019-06-10T10:10:06.917Z,2940.00
2019-06-10T10:11:06.951Z,3028.00
2019-06-10T10:12:06.967Z,3012.00
2019-06-10T10:13:07.038Z,3044.00
2019-06-10T10:14:10.290Z,3232.00
2019-06-10T10:15:23.658Z,3416.00
2019-06-10T10:16:07.146Z,3724.00
2019-06-10T10:17:07.162Z,3836.00
2019-06-10T10:18:07.215Z,3756.00
2019-06-10T10:19:07.305Z,3996.00
2019-06-10T10:20:07.303Z,3972.00
2019-06-10T10:21:07.337Z,4052.00
2019-06-10T10:22:10.764Z,4252.00
2019-06-10T10:23:07.422Z,4368.00
2019-06-10T10:24:11.518Z,4424.00
2019-06-10T10:25:07.503Z,4608.00
2019-06-10T10:26:07.515Z,4904.00
2019-06-10T10:27:09.526Z,5052.00
2019-06-10T10:28:07.683Z,5640.00
2019-06-10T10:29:07.648Z,6096.00
2019-06-10T10:30:07.679Z,5724.00
2019-06-10T10:31:07.728Z,5840.00
2019-06-10T10:32:07.748Z,6264.00
2019-06-10T10:33:07.822Z,5796.00
2019-06-10T10:34:07.841Z,5636.00
2019-06-10T10:35:07.878Z,5744.00
2019-06-10T10:36:07.952Z,6056.00
2019-06-10T10:37:07.960Z,6348.00
2019-06-10T10:38:08.027Z,6580.00
2019-06-10T10:39:08.061Z,6380.00
2019-06-10T10:40:08.095Z,6504.00
2019-06-10T10:41:08.202Z,7188.00
2019-06-10T10:42:08.181Z,7028.00
2019-06-10T10:43:23.244Z,6544.00
2019-06-10T10:44:08.261Z,6780.00
2019-06-10T10:45:08.276Z,6776.00
2019-06-10T10:46:09.000Z,7080.00
2019-06-10T10:47:08.395Z,7120.00
2019-06-10T10:48:08.437Z,7020.00
2019-06-10T10:49:08.462Z,7496.00
2019-06-10T10:50:08.549Z,8052.00
2019-06-10T10:51:08.530Z,8236.00
2019-06-10T10:52:08.613Z,7776.00
2019-06-10T10:53:08.608Z,8316.00
2019-06-10T10:54:22.576Z,8168.00
2019-06-10T10:55:08.698Z,7960.00
2019-06-10T10:56:08.746Z,8812.00
2019-06-10T10:57:08.791Z,10040.00
2019-06-10T10:58:08.832Z,14100.00
2019-06-10T10:59:08.866Z,18624.00
2019-06-10T11:00:08.907Z,24128.00
2019-06-10T11:01:08.954Z,28672.00
2019-06-10T11:02:08.971Z,23808.00
2019-06-10T11:03:09.037Z,28864.00
2019-06-10T11:04:09.101Z,27680.00
2019-06-10T11:05:09.093Z,29472.00
2019-06-10T11:06:09.146Z,31872.00
2019-06-10T11:07:09.185Z,32032.00
2019-06-10T11:08:09.233Z,31712.00
2019-06-10T11:09:09.271Z,31232.00
2019-06-10T11:10:09.305Z,30880.00
2019-06-10T11:11:09.360Z,32128.00
2019-06-10T11:12:09.390Z,36448.00
2019-06-10T11:13:09.464Z,32032.00
2019-06-10T11:14:09.476Z,14544.00
2019-06-10T11:15:09.533Z,35072.00
2019-06-10T11:16:09.600Z,37920.00
2019-06-10T11:17:09.621Z,37632.00
2019-06-10T11:18:12.408Z,34528.00
2019-06-10T11:19:09.754Z,11288.00
2019-06-10T11:20:09.765Z,38464.00
2019-06-10T11:21:09.802Z,40064.00
2019-06-10T11:22:09.847Z,38336.00
2019-06-10T11:23:11.934Z,36864.00
2019-06-10T11:24:09.916Z,36576.00
2019-06-10T11:25:12.451Z,41024.00
2019-06-10T11:26:12.183Z,31872.00
2019-06-10T11:27:12.604Z,42528.00
2019-06-10T11:28:10.110Z,35712.00
2019-06-10T11:29:10.283Z,16136.00
2019-06-10T11:30:12.272Z,45120.00
2019-06-10T11:31:10.257Z,40832.00
2019-06-10T11:32:10.290Z,44288.00
2019-06-10T11:33:10.334Z,11120.00
2019-06-10T11:34:10.365Z,18368.00
2019-06-10T11:35:12.151Z,48736.00
2019-06-10T11:36:10.455Z,45216.00
2019-06-10T11:37:12.184Z,43936.00
2019-06-10T11:38:12.825Z,43360.00
2019-06-10T11:39:13.189Z,44416.00
2019-06-10T11:40:12.913Z,47424.00
2019-06-10T11:41:13.644Z,44000.00
2019-06-10T11:42:13.064Z,45632.00
2019-06-10T11:43:13.061Z,49536.00
2019-06-10T11:44:10.827Z,27712.00
2019-06-10T11:45:11.482Z,46688.00
2019-06-10T11:46:13.670Z,45632.00
2019-06-10T11:47:13.139Z,40896.00
2019-06-10T11:48:12.968Z,48512.00
2019-06-10T11:49:12.557Z,49504.00
2019-06-10T11:50:12.121Z,10908.00
2019-06-10T11:51:13.048Z,40576.00
2019-06-10T11:52:12.607Z,45152.00
2019-06-10T11:53:12.806Z,47552.00
2019-06-10T11:54:12.916Z,47456.00
2019-06-10T11:55:16.446Z,50112.00
2019-06-10T11:56:13.050Z,48512.00
2019-06-10T11:57:12.522Z,46336.00
2019-06-10T11:58:11.493Z,53696.00
2019-06-10T11:59:13.417Z,45792.00
2019-06-10T12:00:16.633Z,50240.00
2019-06-10T12:01:12.978Z,49760.00
2019-06-10T12:02:13.188Z,49600.00
2019-06-10T12:03:13.118Z,51072.00
2019-06-10T12:04:12.891Z,52608.00
2019-06-10T12:05:13.087Z,46432.00
2019-06-10T12:06:13.691Z,50688.00
2019-06-10T12:07:12.895Z,51968.00
2019-06-10T12:08:12.995Z,50272.00
2019-06-10T12:09:13.762Z,51808.00
2019-06-10T12:10:12.917Z,51008.00
2019-06-10T12:11:12.784Z,53792.00
2019-06-10T12:12:12.960Z,50592.00
2019-06-10T12:13:13.372Z,47456.00
2019-06-10T12:14:12.851Z,28320.00
2019-06-10T12:15:12.307Z,59200.00
2019-06-10T12:17:24.751Z,56832.00
2019-06-10T12:18:13.205Z,58400.00
2019-06-10T12:19:12.897Z,54464.00
2019-06-10T12:20:13.334Z,56352.00
2019-06-10T12:21:13.334Z,57792.00
2019-06-10T12:22:13.361Z,58464.00
2019-06-10T12:23:13.431Z,59776.00
2019-06-10T12:24:12.948Z,57600.00
2019-06-10T12:25:31.349Z,50400.00
2019-06-10T12:26:12.834Z,52736.00
2019-06-10T12:27:13.175Z,55968.00
2019-06-10T12:28:13.052Z,57248.00
2019-06-10T12:29:12.982Z,56512.00
2019-06-10T12:30:13.252Z,58656.00
2019-06-10T12:31:13.769Z,55680.00
2019-06-10T12:32:13.595Z,58592.00
2019-06-10T12:33:21.667Z,55360.00
2019-06-10T12:34:13.254Z,58400.00
2019-06-10T12:35:13.807Z,58496.00
2019-06-10T12:36:13.318Z,59712.00
2019-06-10T12:37:15.809Z,59360.00
2019-06-10T12:38:13.992Z,57824.00
2019-06-10T12:39:16.988Z,58848.00
2019-06-10T12:40:13.983Z,59040.00
2019-06-10T12:41:14.214Z,60256.00
2019-06-10T12:42:14.323Z,56992.00
2019-06-10T12:43:13.653Z,56384.00
2019-06-10T12:44:13.694Z,58176.00
2019-06-10T12:45:13.763Z,56448.00
2019-06-10T12:46:13.806Z,58688.00
2019-06-10T12:47:13.848Z,59264.00
2019-06-10T12:48:14.216Z,62240.00
2019-06-10T12:49:18.152Z,63296.00
2019-06-10T12:50:13.988Z,61984.00
2019-06-10T12:51:14.068Z,64288.00
2019-06-10T12:52:14.105Z,65248.00
2019-06-10T12:53:14.166Z,63456.00
2019-06-10T12:54:14.200Z,64736.00
2019-06-10T12:55:14.245Z,65280.00
2019-06-10T12:56:15.136Z,64960.00